Terminal Aerodrome Forecast
Issued by NWS Tuscon, AZ

Home | Current Version | Previous Version | Text Only | Print | Product List | Glossary On
Versions: 1 2 3 4 5 6 7 8 9 10 11 12
824
FTUS45 KTWC 201720
TAFDUG
TAF
KDUG 201720Z 2018/2118 VRB03KT P6SM BKN200
     FM202000 26007KT P6SM BKN200
     FM210200 35005KT P6SM BKN200=

USA.gov is the U.S. government's official web portal to all federal, state and local government web resources and services.